Terminal Aerodrome Forecast
Issued by NWS Sterling, VA

Home | Current Version | Previous Version | Text Only | Print | Product List | Glossary On
Versions: 1 2 3 4 5 6 7 8 9 10 11 12 13 14 15 16 17 18 19 20 21 22 23
849
FTUS41 KLWX 031737
TAFBWI
TAF
KBWI 031737Z 0318/0424 07006KT 5SM BR OVC015
     FM032000 04006KT P6SM -SHRA OVC025
     FM040000 06006KT P6SM -DZ OVC015
     FM040300 07005KT 3SM -DZ BR OVC008=

USA.gov is the U.S. government's official web portal to all federal, state and local government web resources and services.